Impacts METAR Board
IDs:

KPIT - Pittsburgh Intl, PA, US

Updated at: 0000 UTC 27 Apr 2018
Potential Impact None Slight Moderate High
Time 26/12Z 26/13Z 26/14Z 26/15Z 26/16Z 26/17Z 26/18Z 26/19Z 26/20Z 26/21Z 26/22Z 26/23Z 27/00Z
Temp40 44 45 49 51 53 57 58 60 61 60 60 60
Dewpt34 34 34 35 35 36 36 36 35 34 32 32 32
Altim29.92 29.93 29.93 29.94 29.94 29.94 29.92 29.90 29.87 29.85 29.85 29.85 29.86
VIS10 10 10 10 10 10 10 10 10 10 10 10 10
CIG-- -- -- -- -- -- -- -- -- -- 250 250 250
CoverSCTSCTSCTSCTSCTSCTSCTSCTFEWSCTBKNBKNOVC
FltCatVFRVFRVFRVFRVFRVFRVFRVFRVFRVFRVFRVFRVFR
WX--------------------------
WDir2903302202800250028027027000180
WSpd4 5 4 4 0 7 4 5 5 6 0 0 3
WGst-- -- -- -- -- -- -- -- -- -- -- -- --
Raw hourly METARs
KPIT 261151Z 29004KT 10SM FEW018 FEW055 SCT250 04/01 A2992 RMK AO2 SLP146 T00440011 10050 20028 51010
KPIT 261251Z 33005KT 10SM FEW018 FEW055 SCT250 07/01 A2993 RMK AO2 SLP148 T00670011
KPIT 261351Z 22004KT 10SM FEW025 SCT250 07/01 A2993 RMK AO2 SLP148 T00720011
KPIT 261451Z 28004KT 10SM SCT028 SCT250 09/02 A2994 RMK AO2 SLP149 T00940017 51004
KPIT 261551Z 00000KT 10SM SCT032 SCT250 11/02 A2994 RMK AO2 SLP150 T01060017
KPIT 261651Z 25007KT 10SM SCT035 SCT250 12/02 A2994 RMK AO2 SLP148 T01170022
KPIT 261751Z VRB04KT 10SM SCT044 SCT250 14/02 A2992 RMK AO2 SLP140 T01390022 10139 20044 58007
KPIT 261851Z 28005KT 10SM FEW049 SCT250 14/02 A2990 RMK AO2 SLP135 T01440022
KPIT 261951Z 27005KT 10SM FEW055 FEW250 16/02 A2987 RMK AO2 SLP125 T01560017
KPIT 262051Z 27006KT 10SM SCT250 16/01 A2985 RMK AO2 SLP117 T01610011 58022
KPIT 262151Z 00000KT 10SM BKN250 16/00 A2985 RMK AO2 SLP118 T01560000
KPIT 262251Z 00000KT 10SM BKN250 16/00 A2985 RMK AO2 SLP119 T01560000
KPIT 262351Z 18003KT 10SM FEW150 OVC250 16/00 A2986 RMK AO2 SLP123 T01560000 10167 20133 53005



Page loaded:  00:38 UTC  |   05:38 PM Pacific  |   06:38 PM Mountain  |   07:38 PM Central  |   08:38 PM Eastern

 

ADVISORIES

FORECASTS

FORECASTS

OBSERVATIONS

USER TOOLS

ABOUT US